createdAt,value
2022-12-22T00:02:38.328Z,1.05
2022-12-22T00:05:32.005Z,1.08
2022-12-22T00:08:17.733Z,0.63
2022-12-22T00:11:03.110Z,0.60
2022-12-22T00:13:48.877Z,0.65
2022-12-22T00:16:35.667Z,1.02
2022-12-22T00:19:21.450Z,1.10
2022-12-22T00:22:06.838Z,0.73
2022-12-22T00:24:52.427Z,0.60
2022-12-22T00:27:47.959Z,0.70
2022-12-22T00:30:35.192Z,1.00
2022-12-22T00:33:24.086Z,0.80
2022-12-22T00:36:10.099Z,0.40
2022-12-22T00:38:55.476Z,0.82
2022-12-22T00:41:40.781Z,0.70
2022-12-22T00:44:26.204Z,0.50
2022-12-22T00:47:11.718Z,0.63
2022-12-22T00:50:03.094Z,0.40
2022-12-22T00:52:48.735Z,2.22
2022-12-22T00:55:37.511Z,0.52
2022-12-22T00:58:25.379Z,0.63
2022-12-22T01:01:10.824Z,1.00
2022-12-22T01:03:56.129Z,0.50
2022-12-22T01:06:45.556Z,0.50
2022-12-22T01:09:30.999Z,0.60
2022-12-22T01:12:16.291Z,0.55
2022-12-22T01:15:01.607Z,0.50
2022-12-22T01:17:46.944Z,0.40
2022-12-22T01:20:32.903Z,0.60
2022-12-22T01:23:19.644Z,0.55
2022-12-22T01:26:04.987Z,0.60
2022-12-22T01:28:50.574Z,0.50
2022-12-22T01:31:39.815Z,0.45
2022-12-22T01:34:26.842Z,0.98
2022-12-22T01:37:12.296Z,0.70
2022-12-22T01:39:58.947Z,0.47
2022-12-22T01:42:45.681Z,0.50
2022-12-22T01:45:39.139Z,0.68
2022-12-22T01:48:27.386Z,0.70
2022-12-22T01:51:12.813Z,0.30
2022-12-22T01:53:58.195Z,0.45
2022-12-22T01:56:45.466Z,0.60
2022-12-22T01:59:30.815Z,0.35
2022-12-22T02:02:17.521Z,0.30
2022-12-22T02:05:06.695Z,0.22
2022-12-22T02:08:14.347Z,0.70
2022-12-22T02:11:24.296Z,0.47
2022-12-22T02:14:32.484Z,0.60
2022-12-22T02:17:25.187Z,0.43
2022-12-22T02:20:43.273Z,0.75
2022-12-22T02:23:41.214Z,0.40
2022-12-22T02:26:41.904Z,0.52
2022-12-22T02:29:28.378Z,0.68
2022-12-22T02:32:13.648Z,0.20
2022-12-22T02:34:59.257Z,0.40
2022-12-22T02:37:54.417Z,0.52
2022-12-22T02:40:48.044Z,0.45
2022-12-22T02:43:47.240Z,0.60
2022-12-22T02:46:51.959Z,0.40
2022-12-22T02:49:43.186Z,0.60
2022-12-22T02:52:33.785Z,0.70
2022-12-22T02:55:20.103Z,0.60
2022-12-22T02:58:08.938Z,0.52
2022-12-22T03:00:55.876Z,0.52
2022-12-22T03:03:41.601Z,0.70
2022-12-22T03:06:27.270Z,0.57
2022-12-22T03:09:12.568Z,0.70
2022-12-22T03:11:57.857Z,1.00
2022-12-22T03:14:43.131Z,0.65
2022-12-22T03:17:29.750Z,1.05
2022-12-22T03:20:15.376Z,0.88
2022-12-22T03:23:00.891Z,0.50
2022-12-22T03:25:46.262Z,0.80
2022-12-22T03:28:14.305Z,0.75
2022-12-22T03:30:42.336Z,0.73
2022-12-22T03:33:11.749Z,0.60
2022-12-22T03:35:39.638Z,0.80
2022-12-22T03:38:07.662Z,0.82
2022-12-22T03:40:35.705Z,0.80
2022-12-22T03:43:20.972Z,0.73
2022-12-22T03:46:06.481Z,0.60
2022-12-22T03:48:36.116Z,0.73
2022-12-22T03:51:04.241Z,0.90
2022-12-22T03:53:32.299Z,0.70
2022-12-22T03:56:07.224Z,0.90
2022-12-22T03:58:35.686Z,0.50
2022-12-22T04:01:07.923Z,0.50
2022-12-22T04:03:37.551Z,0.47
2022-12-22T04:06:05.597Z,0.88
2022-12-22T04:08:33.527Z,0.80
2022-12-22T04:11:18.685Z,0.55
2022-12-22T04:13:46.788Z,0.73
2022-12-22T04:16:14.826Z,0.32
2022-12-22T04:18:44.181Z,0.60
2022-12-22T04:21:12.075Z,0.90
2022-12-22T04:23:40.053Z,0.90
2022-12-22T04:26:08.207Z,0.57
2022-12-22T04:28:36.287Z,0.43
2022-12-22T04:31:04.394Z,0.70
2022-12-22T04:33:32.375Z,0.20
2022-12-22T04:36:01.740Z,0.50
2022-12-22T04:38:29.755Z,0.55
2022-12-22T04:40:57.806Z,0.50
2022-12-22T04:43:27.075Z,0.50
2022-12-22T04:45:56.631Z,0.65
2022-12-22T04:48:43.699Z,0.50
2022-12-22T04:51:33.367Z,0.70
2022-12-22T04:54:21.615Z,0.50
2022-12-22T04:57:08.193Z,0.60
2022-12-22T04:59:36.092Z,0.32
2022-12-22T05:02:04.277Z,0.40
2022-12-22T05:04:32.495Z,0.50
2022-12-22T05:07:01.836Z,1.05
2022-12-22T05:09:29.723Z,1.90
2022-12-22T05:11:57.667Z,0.80
2022-12-22T05:14:25.625Z,3.90
2022-12-22T05:16:53.731Z,1.77
2022-12-22T05:19:24.960Z,1.35
2022-12-22T05:21:57.119Z,3.17
2022-12-22T05:24:26.574Z,8.60
2022-12-22T05:26:54.414Z,5.70
2022-12-22T05:29:22.520Z,3.13
2022-12-22T05:31:50.495Z,5.32
2022-12-22T05:34:18.465Z,5.60
2022-12-22T05:36:46.443Z,12.52
2022-12-22T05:39:14.448Z,21.08
2022-12-22T05:41:43.799Z,13.85
2022-12-22T05:44:11.824Z,8.05
2022-12-22T05:46:39.844Z,8.52
2022-12-22T05:49:07.923Z,3.13
2022-12-22T05:51:35.991Z,5.30
2022-12-22T05:54:03.991Z,6.55
2022-12-22T05:56:32.060Z,3.53
2022-12-22T05:59:01.389Z,5.35
2022-12-22T06:01:29.539Z,4.20
2022-12-22T06:04:00.393Z,2.67
2022-12-22T06:06:28.783Z,3.50
2022-12-22T06:08:56.861Z,2.22
2022-12-22T06:11:24.750Z,5.15
2022-12-22T06:13:52.662Z,2.53
2022-12-22T06:16:22.186Z,1.27
2022-12-22T06:18:50.117Z,1.60
2022-12-22T06:21:18.073Z,2.15
2022-12-22T06:23:46.003Z,2.70
2022-12-22T06:26:13.955Z,1.88
2022-12-22T06:28:42.047Z,1.48
2022-12-22T06:31:10.148Z,2.00
2022-12-22T06:33:39.499Z,2.47
2022-12-22T06:36:08.781Z,1.67
2022-12-22T06:38:36.801Z,2.88
2022-12-22T06:41:04.768Z,1.10
2022-12-22T06:43:31.681Z,2.10
2022-12-22T06:45:59.796Z,1.20
2022-12-22T06:48:27.830Z,1.20
2022-12-22T06:51:00.615Z,1.58
2022-12-22T06:53:28.990Z,0.95
2022-12-22T06:55:57.102Z,1.35
2022-12-22T06:58:25.184Z,3.03
2022-12-22T07:00:56.523Z,1.92
2022-12-22T07:03:24.629Z,1.20
2022-12-22T07:05:52.672Z,0.70
2022-12-22T07:08:22.104Z,1.00
2022-12-22T07:10:58.710Z,1.48
2022-12-22T07:13:28.710Z,0.82
2022-12-22T07:16:01.038Z,1.10
2022-12-22T07:18:31.254Z,1.27
2022-12-22T07:21:00.768Z,2.15
2022-12-22T07:23:30.576Z,0.60
2022-12-22T07:25:58.883Z,1.05
2022-12-22T07:28:26.942Z,1.50
2022-12-22T07:30:55.746Z,0.77
2022-12-22T07:33:24.006Z,0.77
2022-12-22T07:36:03.894Z,0.60
2022-12-22T07:38:35.777Z,0.82
2022-12-22T07:41:05.539Z,0.70
2022-12-22T07:43:32.795Z,0.93
2022-12-22T07:46:00.861Z,1.58
2022-12-22T07:48:46.050Z,0.73
2022-12-22T07:51:13.906Z,1.10
2022-12-22T07:53:43.280Z,1.15
2022-12-22T07:56:11.248Z,0.85
2022-12-22T07:58:39.185Z,1.70
2022-12-22T08:01:07.156Z,1.83
2022-12-22T08:03:35.081Z,3.28
2022-12-22T08:06:05.573Z,4.05
2022-12-22T08:08:34.759Z,3.03
2022-12-22T08:11:04.991Z,1.77
2022-12-22T08:13:33.126Z,3.88
2022-12-22T08:16:05.013Z,2.30
2022-12-22T08:18:33.826Z,1.63
2022-12-22T08:21:02.364Z,2.45
2022-12-22T08:23:49.279Z,1.42
2022-12-22T08:26:24.903Z,1.38
2022-12-22T08:28:56.320Z,1.77
2022-12-22T08:31:27.339Z,1.20
2022-12-22T08:33:56.977Z,1.77
2022-12-22T08:36:25.259Z,1.20
2022-12-22T08:38:53.502Z,1.48
2022-12-22T08:41:42.985Z,1.70
2022-12-22T08:44:11.597Z,1.50
2022-12-22T08:46:39.678Z,1.30
2022-12-22T08:49:07.625Z,1.15
2022-12-22T08:51:35.704Z,0.80
2022-12-22T08:54:05.443Z,0.93
2022-12-22T08:56:36.003Z,0.85
2022-12-22T08:59:07.677Z,0.93
2022-12-22T09:01:37.170Z,0.83
2022-12-22T09:04:06.753Z,0.82
2022-12-22T09:06:40.933Z,1.15
2022-12-22T09:09:12.606Z,1.30
2022-12-22T09:11:42.470Z,0.80
2022-12-22T09:14:11.393Z,0.90
2022-12-22T09:16:40.308Z,1.00
2022-12-22T09:19:08.487Z,1.00
2022-12-22T09:21:36.858Z,0.90
2022-12-22T09:24:07.433Z,1.80
2022-12-22T09:26:36.029Z,2.05
2022-12-22T09:29:05.701Z,1.38
2022-12-22T09:31:34.146Z,0.80
2022-12-22T09:34:02.356Z,1.20
2022-12-22T09:36:32.059Z,0.90
2022-12-22T09:39:00.348Z,0.82
2022-12-22T09:41:34.840Z,0.80
2022-12-22T09:44:07.396Z,1.48
2022-12-22T09:46:37.325Z,0.73
2022-12-22T09:49:06.939Z,0.95
2022-12-22T09:51:40.437Z,1.27
2022-12-22T09:54:11.703Z,0.93
2022-12-22T09:56:40.089Z,0.80
2022-12-22T09:59:12.693Z,0.57
2022-12-22T10:01:56.057Z,0.82
2022-12-22T10:04:36.948Z,0.73
2022-12-22T10:07:18.050Z,0.60
2022-12-22T10:09:50.393Z,0.85
2022-12-22T10:12:21.179Z,0.68
2022-12-22T10:14:52.702Z,0.75
2022-12-22T10:17:24.446Z,0.47
2022-12-22T10:19:54.319Z,0.88
2022-12-22T10:22:28.485Z,0.95
2022-12-22T10:24:56.524Z,0.70
2022-12-22T10:27:29.466Z,1.75
2022-12-22T10:30:21.484Z,1.48
2022-12-22T10:33:05.368Z,1.10
2022-12-22T10:35:48.981Z,0.88
2022-12-22T10:38:24.845Z,0.60
2022-12-22T10:41:01.817Z,1.13
2022-12-22T10:43:32.715Z,0.75
2022-12-22T10:46:03.361Z,1.10
2022-12-22T10:48:33.465Z,1.05
2022-12-22T10:51:02.644Z,0.80
2022-12-22T10:53:42.241Z,0.63
2022-12-22T10:56:19.340Z,1.58
2022-12-22T10:58:52.455Z,4.00
2022-12-22T11:01:33.042Z,3.45
2022-12-22T11:04:18.898Z,2.47
2022-12-22T11:06:46.950Z,1.90
2022-12-22T11:09:33.324Z,2.63
2022-12-22T11:12:11.754Z,2.10
2022-12-22T11:14:49.039Z,1.55
2022-12-22T11:17:49.141Z,1.33
2022-12-22T11:20:52.615Z,1.15
2022-12-22T11:23:27.501Z,1.50
2022-12-22T11:26:04.328Z,1.20
2022-12-22T11:28:51.121Z,1.27
2022-12-22T11:31:32.169Z,1.00
2022-12-22T11:34:14.460Z,1.10
2022-12-22T11:37:02.792Z,1.05
2022-12-22T11:39:45.245Z,1.48
2022-12-22T11:42:34.925Z,3.10
2022-12-22T11:45:36.338Z,1.00
2022-12-22T11:48:24.660Z,0.90
2022-12-22T11:51:01.616Z,1.20
2022-12-22T11:53:55.637Z,1.05
2022-12-22T11:56:26.261Z,2.00
2022-12-22T11:59:08.832Z,1.55
2022-12-22T12:01:52.074Z,0.95
2022-12-22T12:04:40.661Z,1.10
2022-12-22T12:07:25.841Z,1.50
2022-12-22T12:10:04.048Z,0.88
2022-12-22T12:12:43.913Z,1.50
2022-12-22T12:15:27.034Z,1.65
2022-12-22T12:18:21.209Z,1.25
2022-12-22T12:20:59.258Z,0.80
2022-12-22T12:24:11.332Z,1.35
2022-12-22T12:26:49.622Z,1.35
2022-12-22T12:29:21.307Z,2.30
2022-12-22T12:31:57.633Z,1.27
2022-12-22T12:34:28.076Z,0.95
2022-12-22T12:37:02.399Z,0.82
2022-12-22T12:39:38.770Z,0.98
2022-12-22T12:42:19.956Z,1.35
2022-12-22T12:44:52.170Z,1.17
2022-12-22T12:47:26.696Z,0.73
2022-12-22T12:49:56.848Z,0.80
2022-12-22T12:53:05.429Z,0.90
2022-12-22T12:55:51.743Z,1.15
2022-12-22T12:58:53.439Z,0.95
2022-12-22T13:01:56.978Z,1.15
2022-12-22T13:05:12.405Z,2.38
2022-12-22T13:08:14.380Z,1.42
2022-12-22T13:10:47.035Z,1.23
2022-12-22T13:16:23.500Z,0.88
2022-12-22T13:18:52.876Z,1.55
2022-12-22T13:24:25.620Z,1.48
2022-12-22T13:27:01.682Z,2.30
2022-12-22T13:29:41.390Z,1.65
2022-12-22T13:32:21.379Z,1.35
2022-12-22T13:35:29.608Z,1.63
2022-12-22T13:37:48.511Z,1.80
2022-12-22T13:40:21.853Z,1.75
2022-12-22T13:42:54.439Z,1.65
2022-12-22T13:45:30.543Z,1.70
2022-12-22T13:48:00.777Z,1.80
2022-12-22T13:50:34.031Z,2.05
2022-12-22T13:53:04.071Z,2.35
2022-12-22T13:55:33.904Z,2.00
2022-12-22T13:58:08.095Z,1.30
2022-12-22T14:00:36.625Z,1.40
2022-12-22T14:03:27.644Z,1.10
2022-12-22T14:06:01.069Z,2.88
2022-12-22T14:08:29.205Z,2.05
2022-12-22T14:10:57.520Z,1.63
2022-12-22T14:13:32.320Z,1.77
2022-12-22T14:16:02.281Z,1.52
2022-12-22T14:18:31.956Z,1.90
2022-12-22T14:21:00.481Z,0.98
2022-12-22T14:23:30.600Z,2.55
2022-12-22T14:25:59.749Z,2.42
2022-12-22T14:28:33.190Z,2.40
2022-12-22T14:31:03.847Z,2.10
2022-12-22T14:33:33.842Z,1.83
2022-12-22T14:36:07.132Z,2.28
2022-12-22T14:38:41.385Z,2.28
2022-12-22T14:41:38.516Z,1.80
2022-12-22T14:44:13.178Z,2.97
2022-12-22T14:46:41.632Z,2.90
2022-12-22T14:49:15.424Z,1.80
2022-12-22T14:51:43.665Z,2.60
2022-12-22T14:54:21.323Z,1.75
2022-12-22T14:56:52.639Z,1.30
2022-12-22T14:59:27.518Z,2.20
2022-12-22T15:02:01.166Z,2.72
2022-12-22T15:04:30.143Z,1.13
2022-12-22T15:08:03.185Z,2.33
2022-12-22T15:10:16.912Z,0.98
2022-12-22T15:12:46.096Z,1.58
2022-12-22T15:15:18.655Z,1.33
2022-12-22T15:17:48.817Z,1.40
2022-12-22T15:20:20.747Z,1.75
2022-12-22T15:22:48.987Z,1.40
2022-12-22T15:25:19.392Z,1.70
2022-12-22T15:27:47.644Z,0.73
2022-12-22T15:30:19.378Z,1.20
2022-12-22T15:32:47.672Z,1.00
2022-12-22T15:35:21.711Z,1.25
2022-12-22T15:37:49.751Z,1.15
2022-12-22T15:40:20.903Z,1.48
2022-12-22T15:42:48.995Z,1.60
2022-12-22T15:45:19.498Z,1.02
2022-12-22T15:47:53.116Z,1.60
2022-12-22T15:50:22.992Z,0.90
2022-12-22T15:52:54.089Z,1.13
2022-12-22T15:55:22.699Z,1.30
2022-12-22T15:57:52.629Z,1.20
2022-12-22T16:00:23.339Z,1.13
2022-12-22T16:02:51.843Z,1.67
2022-12-22T16:05:19.988Z,1.13
2022-12-22T16:07:47.903Z,1.75
2022-12-22T16:10:22.895Z,1.30
2022-12-22T16:12:54.572Z,1.67
2022-12-22T16:15:23.925Z,2.03
2022-12-22T16:17:53.018Z,0.90
2022-12-22T16:20:21.266Z,1.70
2022-12-22T16:22:51.353Z,2.08
2022-12-22T16:25:24.003Z,1.23
2022-12-22T16:30:22.405Z,0.90
2022-12-22T16:32:52.135Z,1.25
2022-12-22T16:35:22.806Z,2.08
2022-12-22T16:37:51.364Z,1.67
2022-12-22T16:40:20.462Z,0.93
2022-12-22T16:45:38.802Z,1.50
2022-12-22T16:48:13.405Z,1.70
2022-12-22T16:50:46.217Z,1.00
2022-12-22T16:53:15.320Z,1.50
2022-12-22T16:55:43.917Z,1.73
2022-12-22T16:58:13.973Z,1.27
2022-12-22T17:00:45.827Z,1.10
2022-12-22T17:03:17.940Z,1.23
2022-12-22T17:05:56.487Z,1.67
2022-12-22T17:08:26.992Z,1.30
2022-12-22T17:10:57.659Z,1.88
2022-12-22T17:13:26.328Z,1.60
2022-12-22T17:15:54.453Z,1.75
2022-12-22T17:18:26.725Z,2.25
2022-12-22T17:20:58.368Z,2.17
2022-12-22T17:23:33.405Z,1.67
2022-12-22T17:26:04.130Z,2.45
2022-12-22T17:28:33.872Z,1.98
2022-12-22T17:31:02.295Z,1.67
2022-12-22T17:33:32.378Z,2.58
2022-12-22T17:36:01.645Z,2.10
2022-12-22T17:38:29.904Z,1.90
2022-12-22T17:40:57.950Z,2.15
2022-12-22T17:43:26.020Z,1.98
2022-12-22T17:45:54.335Z,2.13
2022-12-22T17:48:22.793Z,1.92
2022-12-22T17:50:52.279Z,2.45
2022-12-22T17:53:21.301Z,1.50
2022-12-22T17:56:07.919Z,2.17
2022-12-22T17:58:37.085Z,3.28
2022-12-22T18:01:05.607Z,4.05
2022-12-22T18:03:33.866Z,3.13
2022-12-22T18:06:03.389Z,4.20
2022-12-22T18:08:31.722Z,3.63
2022-12-22T18:11:00.151Z,4.13
2022-12-22T18:13:28.344Z,3.30
2022-12-22T18:15:56.630Z,2.83
2022-12-22T18:18:24.844Z,2.63
2022-12-22T18:21:07.410Z,2.50
2022-12-22T18:23:38.360Z,3.83
2022-12-22T18:26:08.577Z,3.00
2022-12-22T18:28:37.166Z,3.22
2022-12-22T18:31:05.424Z,3.20
2022-12-22T18:33:33.542Z,2.97
2022-12-22T18:36:01.811Z,2.30
2022-12-22T18:38:32.863Z,2.40
2022-12-22T18:41:02.250Z,2.38
2022-12-22T18:43:30.112Z,3.50
2022-12-22T18:45:58.042Z,3.90
2022-12-22T18:48:25.951Z,3.72
2022-12-22T18:50:54.071Z,2.45
2022-12-22T18:53:27.645Z,3.00
2022-12-22T18:55:56.321Z,2.78
2022-12-22T18:58:27.067Z,3.03
2022-12-22T19:00:56.929Z,3.65
2022-12-22T19:03:29.133Z,2.40
2022-12-22T19:05:57.743Z,4.07
2022-12-22T19:08:27.794Z,2.80
2022-12-22T19:10:57.684Z,2.50
2022-12-22T19:13:31.935Z,2.28
2022-12-22T19:16:00.119Z,3.50
2022-12-22T19:18:28.953Z,3.42
2022-12-22T19:20:57.314Z,2.35
2022-12-22T19:23:27.065Z,3.80
2022-12-22T19:26:02.132Z,2.55
2022-12-22T19:28:35.574Z,2.65
2022-12-22T19:31:04.551Z,3.20
2022-12-22T19:33:37.014Z,3.35
2022-12-22T19:36:06.162Z,2.45
2022-12-22T19:38:35.742Z,2.33
2022-12-22T19:41:06.804Z,2.10
2022-12-22T19:43:36.308Z,1.30
2022-12-22T19:46:05.252Z,1.60
2022-12-22T19:48:33.431Z,2.40
2022-12-22T19:51:01.360Z,1.73
2022-12-22T19:53:29.344Z,1.75
2022-12-22T19:55:58.486Z,1.85
2022-12-22T19:58:31.937Z,1.20
2022-12-22T20:01:01.467Z,1.30
2022-12-22T20:03:29.608Z,2.25
2022-12-22T20:05:57.650Z,3.33
2022-12-22T20:08:25.643Z,2.30
2022-12-22T20:10:58.342Z,1.65
2022-12-22T20:13:28.066Z,0.80
2022-12-22T20:15:55.963Z,1.65
2022-12-22T20:18:29.118Z,1.42
2022-12-22T20:21:02.005Z,1.27
2022-12-22T20:23:32.967Z,1.63
2022-12-22T20:26:04.137Z,1.55
2022-12-22T20:28:34.778Z,1.90
2022-12-22T20:31:03.522Z,1.40
2022-12-22T20:33:33.499Z,1.33
2022-12-22T20:36:03.461Z,1.90
2022-12-22T20:38:35.615Z,1.67
2022-12-22T20:41:05.115Z,1.40
2022-12-22T20:43:34.466Z,2.50
2022-12-22T20:46:08.240Z,1.40
2022-12-22T20:48:40.355Z,1.05
2022-12-22T20:51:11.390Z,1.33
2022-12-22T20:53:39.427Z,1.10
2022-12-22T20:56:11.982Z,0.73
2022-12-22T20:58:40.050Z,1.63
2022-12-22T21:01:07.961Z,0.90
2022-12-22T21:03:37.547Z,1.00
2022-12-22T21:06:21.868Z,1.27
2022-12-22T21:08:49.755Z,1.45
2022-12-22T21:11:17.795Z,1.40
2022-12-22T21:13:46.348Z,1.90
2022-12-22T21:16:17.131Z,1.88
2022-12-22T21:18:47.174Z,1.00
2022-12-22T21:21:15.171Z,1.85
2022-12-22T21:23:43.146Z,1.45
2022-12-22T21:26:20.655Z,0.77
2022-12-22T21:28:48.826Z,1.60
2022-12-22T21:31:16.857Z,1.30
2022-12-22T21:33:47.220Z,2.42
2022-12-22T21:36:20.895Z,2.22
2022-12-22T21:38:49.601Z,2.20
2022-12-22T21:41:17.528Z,2.00
2022-12-22T21:43:45.780Z,1.60
2022-12-22T21:46:14.431Z,0.98
2022-12-22T21:48:42.314Z,0.75
2022-12-22T21:51:14.047Z,1.40
2022-12-22T21:53:42.168Z,1.60
2022-12-22T21:56:18.137Z,2.20
2022-12-22T21:58:46.275Z,2.08
2022-12-22T22:01:15.325Z,2.08
2022-12-22T22:03:43.612Z,0.90
2022-12-22T22:06:12.920Z,1.00
2022-12-22T22:08:41.141Z,1.35
2022-12-22T22:11:18.029Z,0.68
2022-12-22T22:13:46.061Z,0.70
2022-12-22T22:16:14.511Z,0.98
2022-12-22T22:18:43.139Z,1.23
2022-12-22T22:21:14.843Z,1.00
2022-12-22T22:23:43.595Z,0.60
2022-12-22T22:26:12.273Z,0.80
2022-12-22T22:28:40.246Z,0.95
2022-12-22T22:31:11.676Z,0.88
2022-12-22T22:33:39.919Z,0.80
2022-12-22T22:36:08.748Z,0.70
2022-12-22T22:38:38.015Z,0.70
2022-12-22T22:41:06.145Z,1.13
2022-12-22T22:43:34.169Z,1.08
2022-12-22T22:46:02.156Z,0.60
2022-12-22T22:48:30.126Z,0.50
2022-12-22T22:50:58.089Z,0.80
2022-12-22T22:53:26.058Z,0.88
2022-12-22T22:55:55.365Z,0.80
2022-12-22T22:58:26.164Z,0.57
2022-12-22T23:00:54.315Z,1.25
2022-12-22T23:03:23.094Z,1.55
2022-12-22T23:05:51.192Z,0.50
2022-12-22T23:08:19.268Z,1.75
2022-12-22T23:10:49.766Z,0.50
2022-12-22T23:13:19.327Z,0.50
2022-12-22T23:15:54.794Z,0.50
2022-12-22T23:18:23.328Z,0.50
2022-12-22T23:20:51.375Z,0.55
2022-12-22T23:23:20.141Z,0.80
2022-12-22T23:25:50.901Z,0.80
2022-12-22T23:28:20.393Z,0.52
2022-12-22T23:30:50.572Z,0.60
2022-12-22T23:33:18.919Z,0.35
2022-12-22T23:35:49.046Z,0.70
2022-12-22T23:38:18.309Z,0.30
2022-12-22T23:40:54.728Z,0.57
2022-12-22T23:43:24.279Z,0.75
2022-12-22T23:45:52.316Z,0.70
2022-12-22T23:48:20.217Z,1.00
2022-12-22T23:50:48.571Z,0.80
2022-12-22T23:53:16.557Z,0.60
2022-12-22T23:55:44.587Z,0.50
2022-12-22T23:58:12.969Z,0.70
